createdAt,value
2019-01-10T00:00:55.776Z,5.60
2019-01-10T00:03:25.428Z,5.60
2019-01-10T00:05:55.133Z,5.70
2019-01-10T00:08:24.834Z,5.60
2019-01-10T00:10:54.545Z,5.60
2019-01-10T00:13:24.192Z,5.60
2019-01-10T00:15:53.943Z,5.60
2019-01-10T00:18:23.603Z,5.60
2019-01-10T00:20:53.254Z,5.60
2019-01-10T00:23:22.917Z,5.60
2019-01-10T00:25:52.579Z,5.60
2019-01-10T00:28:22.221Z,5.60
2019-01-10T00:30:51.925Z,5.60
2019-01-10T00:33:21.610Z,5.60
2019-01-10T00:35:51.422Z,5.60
2019-01-10T00:38:21.060Z,5.60
2019-01-10T00:40:50.723Z,5.60
2019-01-10T00:43:20.387Z,5.60
2019-01-10T00:45:50.041Z,5.60
2019-01-10T00:48:19.803Z,5.60
2019-01-10T00:50:49.667Z,5.60
2019-01-10T00:53:19.397Z,5.60
2019-01-10T00:55:49.105Z,5.50
2019-01-10T00:58:18.732Z,5.60
2019-01-10T01:00:48.384Z,5.60
2019-01-10T01:03:18.164Z,5.60
2019-01-10T01:05:47.997Z,5.60
2019-01-10T01:08:17.738Z,5.60
2019-01-10T01:10:47.449Z,5.60
2019-01-10T01:13:17.178Z,5.60
2019-01-10T01:15:46.868Z,5.60
2019-01-10T01:18:16.540Z,5.60
2019-01-10T01:20:46.253Z,5.60
2019-01-10T01:23:15.962Z,5.60
2019-01-10T01:25:46.139Z,5.60
2019-01-10T01:28:15.837Z,5.60
2019-01-10T01:30:46.297Z,5.60
2019-01-10T01:33:15.950Z,5.60
2019-01-10T01:35:45.605Z,5.60
2019-01-10T01:38:15.256Z,5.60
2019-01-10T01:40:46.241Z,5.60
2019-01-10T01:43:15.897Z,5.60
2019-01-10T01:45:45.611Z,5.60
2019-01-10T01:48:15.293Z,5.60
2019-01-10T01:50:45.003Z,5.60
2019-01-10T01:53:14.759Z,5.60
2019-01-10T01:55:44.404Z,5.60
2019-01-10T01:58:14.067Z,5.60
2019-01-10T02:00:43.781Z,5.60
2019-01-10T02:03:13.420Z,5.60
2019-01-10T02:05:43.111Z,5.60
2019-01-10T02:08:12.769Z,5.60
2019-01-10T02:10:42.493Z,5.60
2019-01-10T02:13:16.838Z,5.60
2019-01-10T02:15:41.951Z,5.60
2019-01-10T02:18:11.618Z,5.60
2019-01-10T02:20:41.281Z,5.70
2019-01-10T02:23:11.034Z,5.70
2019-01-10T02:25:40.765Z,5.70
2019-01-10T02:28:10.511Z,5.70
2019-01-10T02:30:42.072Z,5.70
2019-01-10T02:33:10.015Z,5.70
2019-01-10T02:35:39.685Z,5.70
2019-01-10T02:38:09.479Z,5.70
2019-01-10T02:40:39.229Z,5.70
2019-01-10T02:43:08.866Z,5.70
2019-01-10T02:45:38.516Z,5.60
2019-01-10T02:48:08.204Z,5.60
2019-01-10T02:50:37.859Z,5.60
2019-01-10T02:53:07.634Z,5.60
2019-01-10T02:55:37.279Z,5.70
2019-01-10T02:58:07.000Z,5.60
2019-01-10T03:00:36.687Z,5.70
2019-01-10T03:03:06.394Z,5.70
2019-01-10T03:05:36.259Z,5.70
2019-01-10T03:08:06.016Z,5.60
2019-01-10T03:10:35.716Z,5.60
2019-01-10T03:13:05.435Z,5.60
2019-01-10T03:15:35.204Z,5.60
2019-01-10T03:18:06.245Z,5.60
2019-01-10T03:20:35.886Z,5.60
2019-01-10T03:23:05.714Z,5.60
2019-01-10T03:25:35.272Z,5.60
2019-01-10T03:28:05.019Z,5.50
2019-01-10T03:30:34.745Z,5.50
2019-01-10T03:33:04.458Z,5.40
2019-01-10T03:35:34.174Z,5.40
2019-01-10T03:38:03.906Z,5.50
2019-01-10T03:40:33.792Z,5.50
2019-01-10T03:43:03.529Z,5.50
2019-01-10T03:45:33.225Z,5.50
2019-01-10T03:48:02.868Z,5.50
2019-01-10T03:50:32.530Z,5.50
2019-01-10T03:53:02.215Z,5.60
2019-01-10T03:55:31.898Z,5.60
2019-01-10T03:58:01.643Z,5.60
2019-01-10T04:00:31.372Z,5.60
2019-01-10T04:03:01.059Z,5.60
2019-01-10T04:05:32.018Z,5.60
2019-01-10T04:08:01.685Z,5.60
2019-01-10T04:10:31.438Z,5.60
2019-01-10T04:13:01.084Z,5.60
2019-01-10T04:15:30.741Z,5.60
2019-01-10T04:18:00.444Z,5.60
2019-01-10T04:20:30.078Z,5.60
2019-01-10T04:22:59.763Z,5.60
2019-01-10T04:25:29.456Z,5.60
2019-01-10T04:27:59.102Z,5.70
2019-01-10T04:30:30.059Z,5.70
2019-01-10T04:32:59.731Z,5.70
2019-01-10T04:35:29.401Z,5.70
2019-01-10T04:38:00.327Z,5.70
2019-01-10T04:40:29.963Z,5.70
2019-01-10T04:42:59.706Z,5.80
2019-01-10T04:45:29.380Z,5.70
2019-01-10T04:47:59.142Z,5.70
2019-01-10T04:50:28.831Z,5.70
2019-01-10T04:52:58.546Z,5.70
2019-01-10T04:55:28.250Z,5.70
2019-01-10T04:57:58.068Z,5.70
2019-01-10T05:00:27.735Z,5.70
2019-01-10T05:02:57.862Z,5.70
2019-01-10T05:05:27.600Z,5.70
2019-01-10T05:07:57.234Z,5.70
2019-01-10T05:10:26.925Z,5.70
2019-01-10T05:12:56.631Z,5.70
2019-01-10T05:15:26.313Z,5.70
2019-01-10T05:17:55.948Z,5.70
2019-01-10T05:20:25.626Z,5.70
2019-01-10T05:22:55.335Z,5.70
2019-01-10T05:25:24.964Z,5.70
2019-01-10T05:27:54.633Z,5.70
2019-01-10T05:30:24.752Z,5.70
2019-01-10T05:32:54.854Z,5.70
2019-01-10T05:35:26.011Z,5.70
2019-01-10T05:37:55.682Z,5.70
2019-01-10T05:40:25.437Z,5.70
2019-01-10T05:42:55.056Z,5.70
2019-01-10T05:45:24.711Z,5.70
2019-01-10T05:47:54.333Z,5.70
2019-01-10T05:50:23.996Z,5.70
2019-01-10T05:52:53.744Z,5.80
2019-01-10T05:55:24.158Z,5.80
2019-01-10T05:57:53.844Z,5.70
2019-01-10T06:00:26.552Z,5.80
2019-01-10T06:02:56.756Z,5.80
2019-01-10T06:05:26.608Z,5.80
2019-01-10T06:07:56.300Z,5.80
2019-01-10T06:10:27.694Z,5.80
2019-01-10T06:12:57.458Z,5.80
2019-01-10T06:15:27.201Z,5.90
2019-01-10T06:17:56.877Z,5.90
2019-01-10T06:20:26.571Z,5.90
2019-01-10T06:22:57.652Z,5.90
2019-01-10T06:25:27.364Z,5.90
2019-01-10T06:27:57.015Z,5.90
2019-01-10T06:30:26.692Z,5.90
2019-01-10T06:32:56.368Z,5.90
2019-01-10T06:35:26.000Z,5.80
2019-01-10T06:37:55.669Z,5.80
2019-01-10T06:40:25.305Z,5.80
2019-01-10T06:42:54.983Z,5.80
2019-01-10T06:45:24.631Z,5.80
2019-01-10T06:47:54.273Z,5.80
2019-01-10T06:50:23.934Z,5.80
2019-01-10T06:52:53.591Z,5.80
2019-01-10T06:55:25.678Z,5.80
2019-01-10T06:57:55.314Z,5.80
2019-01-10T07:00:25.579Z,5.80
2019-01-10T07:02:55.290Z,5.80
2019-01-10T07:05:24.932Z,5.80
2019-01-10T07:07:56.864Z,5.70
2019-01-10T07:10:28.977Z,5.70
2019-01-10T07:12:57.087Z,5.60
2019-01-10T07:15:26.738Z,5.60
2019-01-10T07:17:57.862Z,5.50
2019-01-10T07:20:28.699Z,5.50
2019-01-10T07:22:58.354Z,5.50
2019-01-10T07:25:28.273Z,5.50
2019-01-10T07:27:57.924Z,5.50
2019-01-10T07:30:35.815Z,5.50
2019-01-10T07:32:57.632Z,5.50
2019-01-10T07:35:27.307Z,5.50
2019-01-10T07:37:57.112Z,5.50
2019-01-10T07:40:27.405Z,5.50
2019-01-10T07:42:57.346Z,5.50
2019-01-10T07:45:27.818Z,5.50
2019-01-10T07:47:57.474Z,5.50
2019-01-10T07:50:32.426Z,5.50
2019-01-10T07:53:02.182Z,5.60
2019-01-10T07:55:31.843Z,5.50
2019-01-10T07:58:01.514Z,5.60
2019-01-10T08:00:31.154Z,5.60
2019-01-10T08:03:01.148Z,5.60
2019-01-10T08:05:30.798Z,5.60
2019-01-10T08:08:01.647Z,5.60
2019-01-10T08:10:31.340Z,5.60
2019-01-10T08:13:00.985Z,5.60
2019-01-10T08:15:30.637Z,5.70
2019-01-10T08:18:01.589Z,5.70
2019-01-10T08:20:31.246Z,5.70
2019-01-10T08:23:02.251Z,5.70
2019-01-10T08:25:33.196Z,5.80
2019-01-10T08:28:02.835Z,5.80
2019-01-10T08:30:32.487Z,5.80
2019-01-10T08:33:03.359Z,5.80
2019-01-10T08:35:33.116Z,5.80
2019-01-10T08:38:02.768Z,5.80
2019-01-10T08:40:32.542Z,5.90
2019-01-10T08:43:02.217Z,5.80
2019-01-10T08:45:31.904Z,5.80
2019-01-10T08:48:01.539Z,5.90
2019-01-10T08:50:33.647Z,5.90
2019-01-10T08:53:03.326Z,5.90
2019-01-10T08:55:32.956Z,5.90
2019-01-10T08:58:02.650Z,5.90
2019-01-10T09:00:32.385Z,6.00
2019-01-10T09:03:02.032Z,6.00
2019-01-10T09:05:31.687Z,6.00
2019-01-10T09:08:01.383Z,6.00
2019-01-10T09:10:32.676Z,6.00
2019-01-10T09:13:03.667Z,6.10
2019-01-10T09:15:34.774Z,6.00
2019-01-10T09:18:03.114Z,6.10
2019-01-10T09:20:32.785Z,6.10
2019-01-10T09:23:02.454Z,6.10
2019-01-10T09:25:32.154Z,6.10
2019-01-10T09:28:01.800Z,6.10
2019-01-10T09:30:31.449Z,6.10
2019-01-10T09:33:02.435Z,6.10
2019-01-10T09:35:32.085Z,6.10
2019-01-10T09:38:01.788Z,6.20
2019-01-10T09:40:31.450Z,6.30
2019-01-10T09:43:01.129Z,6.30
2019-01-10T09:45:30.836Z,6.40
2019-01-10T09:48:01.684Z,6.40
2019-01-10T09:50:31.459Z,6.40
2019-01-10T09:53:01.173Z,6.40
2019-01-10T09:55:30.870Z,6.30
2019-01-10T09:58:00.561Z,6.40
2019-01-10T10:00:31.377Z,6.30
2019-01-10T10:03:01.089Z,6.30
2019-01-10T10:05:30.848Z,6.30
2019-01-10T10:08:00.514Z,6.30
2019-01-10T10:10:30.970Z,6.30
2019-01-10T10:13:00.673Z,6.30
2019-01-10T10:15:30.365Z,6.20
2019-01-10T10:18:02.440Z,6.20
2019-01-10T10:20:32.941Z,6.10
2019-01-10T10:23:03.978Z,6.20
2019-01-10T10:25:34.006Z,6.10
2019-01-10T10:28:03.753Z,6.10
2019-01-10T10:30:33.920Z,6.10
2019-01-10T10:33:03.589Z,6.10
2019-01-10T10:35:33.742Z,6.10
2019-01-10T10:38:03.466Z,6.10
2019-01-10T10:40:33.480Z,6.10
2019-01-10T10:43:03.242Z,6.10
2019-01-10T10:45:36.280Z,6.10
2019-01-10T10:48:06.449Z,6.10
2019-01-10T10:50:36.159Z,6.10
2019-01-10T10:53:06.180Z,6.10
2019-01-10T10:55:35.817Z,6.10
2019-01-10T10:58:05.555Z,6.10
2019-01-10T11:00:35.253Z,6.10
2019-01-10T11:03:04.935Z,6.20
2019-01-10T11:05:34.674Z,6.20
2019-01-10T11:08:04.342Z,6.20
2019-01-10T11:10:34.047Z,6.20
2019-01-10T11:13:03.733Z,6.20
2019-01-10T11:15:34.735Z,6.20
2019-01-10T11:18:04.610Z,6.20
2019-01-10T11:20:34.341Z,6.20
2019-01-10T11:23:10.379Z,6.20
2019-01-10T11:25:33.657Z,6.20
2019-01-10T11:28:04.455Z,6.10
2019-01-10T11:30:34.139Z,6.10
2019-01-10T11:33:03.856Z,6.10
2019-01-10T11:35:33.506Z,6.00
2019-01-10T11:38:03.184Z,6.00
2019-01-10T11:40:32.852Z,6.00
2019-01-10T11:43:02.551Z,6.00
2019-01-10T11:45:33.356Z,6.00
2019-01-10T11:48:03.004Z,6.00
2019-01-10T11:50:32.669Z,6.00
2019-01-10T11:53:03.471Z,6.00
2019-01-10T11:55:34.379Z,6.00
2019-01-10T11:58:05.219Z,6.00
2019-01-10T12:00:34.926Z,6.00
2019-01-10T12:03:06.407Z,6.00
2019-01-10T12:05:47.285Z,6.00
2019-01-10T12:08:10.512Z,6.10
2019-01-10T12:10:40.176Z,6.10
2019-01-10T12:13:09.855Z,6.10
2019-01-10T12:15:39.718Z,6.20
2019-01-10T12:18:09.350Z,6.20
2019-01-10T12:20:41.524Z,6.20
2019-01-10T12:23:11.187Z,6.20
2019-01-10T12:25:42.167Z,6.20
2019-01-10T12:28:11.835Z,6.20
2019-01-10T12:30:41.496Z,6.20
2019-01-10T12:33:11.217Z,6.20
2019-01-10T12:35:40.862Z,6.20
2019-01-10T12:38:11.707Z,6.30
2019-01-10T12:40:41.385Z,6.20
2019-01-10T12:43:11.042Z,6.20
2019-01-10T12:45:41.952Z,6.20
2019-01-10T12:48:12.747Z,6.10
2019-01-10T12:50:42.460Z,6.10
2019-01-10T12:53:12.168Z,6.10
2019-01-10T12:55:43.126Z,6.10
2019-01-10T12:58:12.767Z,6.10
2019-01-10T13:00:42.419Z,6.10
2019-01-10T13:03:12.123Z,6.00
2019-01-10T13:05:41.783Z,6.00
2019-01-10T13:08:11.527Z,6.10
2019-01-10T13:10:41.159Z,6.00
2019-01-10T13:13:12.072Z,6.00
2019-01-10T13:15:42.951Z,6.00
2019-01-10T13:18:12.617Z,6.00
2019-01-10T13:20:42.484Z,6.00
2019-01-10T13:23:12.086Z,6.00
2019-01-10T13:25:43.111Z,6.00
2019-01-10T13:28:14.071Z,6.10
2019-01-10T13:30:43.743Z,6.10
2019-01-10T13:33:13.381Z,6.10
2019-01-10T13:35:43.014Z,6.10
2019-01-10T13:38:12.828Z,6.10
2019-01-10T13:40:42.531Z,6.10
2019-01-10T13:43:12.191Z,6.10
2019-01-10T13:45:46.319Z,6.00
2019-01-10T13:48:12.060Z,6.00
2019-01-10T13:50:41.695Z,6.00
2019-01-10T13:53:12.943Z,6.00
2019-01-10T13:55:42.631Z,6.00
2019-01-10T13:58:12.303Z,6.00
2019-01-10T14:00:41.967Z,6.00
2019-01-10T14:03:12.525Z,6.00
2019-01-10T14:05:43.463Z,6.00
2019-01-10T14:08:13.120Z,6.00
2019-01-10T14:10:42.829Z,5.90
2019-01-10T14:13:12.519Z,6.00
2019-01-10T14:15:42.194Z,6.00
2019-01-10T14:18:13.540Z,6.00
2019-01-10T14:20:44.128Z,6.00
2019-01-10T14:23:13.916Z,6.00
2019-01-10T14:25:44.885Z,6.10
2019-01-10T14:28:14.595Z,6.00
2019-01-10T14:30:44.273Z,6.00
2019-01-10T14:33:14.424Z,5.90
2019-01-10T14:35:45.358Z,5.90
2019-01-10T14:38:15.071Z,5.90
2019-01-10T14:40:44.775Z,5.90
2019-01-10T14:43:14.463Z,5.90
2019-01-10T14:45:45.386Z,5.90
2019-01-10T14:48:15.034Z,5.80
2019-01-10T14:50:44.729Z,5.80
2019-01-10T14:53:14.438Z,5.80
2019-01-10T14:55:44.158Z,5.80
2019-01-10T14:58:13.825Z,5.80
2019-01-10T15:00:45.012Z,5.80
2019-01-10T15:03:14.710Z,5.80
2019-01-10T15:05:44.389Z,5.80
2019-01-10T15:08:14.141Z,5.80
2019-01-10T15:10:45.149Z,5.80
2019-01-10T15:13:14.850Z,5.80
2019-01-10T15:15:44.565Z,5.80
2019-01-10T15:18:14.232Z,5.80
2019-01-10T15:20:43.878Z,5.80
2019-01-10T15:23:13.550Z,5.80
2019-01-10T15:25:43.221Z,5.80
2019-01-10T15:28:12.905Z,5.80
2019-01-10T15:30:44.026Z,5.80
2019-01-10T15:33:13.668Z,5.70
2019-01-10T15:35:46.019Z,5.70
2019-01-10T15:38:15.688Z,5.70
2019-01-10T15:40:45.369Z,5.70
2019-01-10T15:43:15.033Z,5.70
2019-01-10T15:45:44.728Z,5.70
2019-01-10T15:48:14.449Z,5.60
2019-01-10T15:50:44.127Z,5.50
2019-01-10T15:53:13.850Z,5.10
2019-01-10T15:55:43.643Z,4.70
2019-01-10T15:58:13.315Z,4.30
2019-01-10T16:00:42.974Z,3.90
2019-01-10T16:03:12.770Z,3.60
2019-01-10T16:05:43.667Z,3.30
2019-01-10T16:08:13.320Z,3.10
2019-01-10T16:10:43.024Z,3.00
2019-01-10T16:13:12.736Z,2.90
2019-01-10T16:15:42.445Z,2.80
2019-01-10T16:18:12.105Z,2.80
2019-01-10T16:20:41.866Z,2.70
2019-01-10T16:23:11.535Z,2.70
2019-01-10T16:25:41.185Z,2.60
2019-01-10T16:28:13.403Z,2.60
2019-01-10T16:30:44.315Z,2.60
2019-01-10T16:33:15.228Z,2.50
2019-01-10T16:35:46.192Z,2.60
2019-01-10T16:38:15.881Z,2.50
2019-01-10T16:40:45.523Z,2.50
2019-01-10T16:43:15.225Z,2.50
2019-01-10T16:45:44.916Z,2.40
2019-01-10T16:48:14.581Z,2.40
2019-01-10T16:50:45.889Z,2.40
2019-01-10T16:53:15.554Z,2.40
2019-01-10T16:55:45.203Z,2.30
2019-01-10T16:58:14.907Z,2.30
2019-01-10T17:00:44.528Z,2.30
2019-01-10T17:03:14.194Z,2.30
2019-01-10T17:05:45.069Z,2.30
2019-01-10T17:08:15.925Z,2.30
2019-01-10T17:10:45.574Z,2.20
2019-01-10T17:13:15.261Z,2.20
2019-01-10T17:15:44.929Z,2.20
2019-01-10T17:18:14.709Z,2.10
2019-01-10T17:20:44.361Z,2.10
2019-01-10T17:23:14.031Z,2.10
2019-01-10T17:25:43.720Z,2.10
2019-01-10T17:28:13.380Z,2.10
2019-01-10T17:30:44.326Z,2.10
2019-01-10T17:33:13.986Z,2.10
2019-01-10T17:35:43.714Z,2.10
2019-01-10T17:38:14.606Z,2.10
2019-01-10T17:40:45.513Z,2.20
2019-01-10T17:43:15.170Z,2.20
2019-01-10T17:45:46.165Z,2.20
2019-01-10T17:48:15.825Z,2.30
2019-01-10T17:50:45.487Z,2.30
2019-01-10T17:53:16.541Z,2.50
2019-01-10T17:55:46.292Z,2.70
2019-01-10T17:58:15.971Z,2.70
2019-01-10T18:00:45.661Z,2.80
2019-01-10T18:03:15.361Z,2.90
2019-01-10T18:05:47.533Z,2.90
2019-01-10T18:08:17.272Z,3.00
2019-01-10T18:10:48.172Z,3.00
2019-01-10T18:13:18.047Z,2.90
2019-01-10T18:15:47.733Z,2.80
2019-01-10T18:18:17.470Z,2.70
2019-01-10T18:20:49.577Z,2.60
2019-01-10T18:23:19.274Z,2.60
2019-01-10T18:25:50.754Z,2.60
2019-01-10T18:28:20.439Z,2.60
2019-01-10T18:30:50.179Z,2.50
2019-01-10T18:33:19.868Z,2.50
2019-01-10T18:35:50.704Z,2.50
2019-01-10T18:38:20.370Z,2.60
2019-01-10T18:40:51.266Z,2.50
2019-01-10T18:43:20.935Z,2.50
2019-01-10T18:45:52.616Z,2.50
2019-01-10T18:48:23.550Z,2.40
2019-01-10T18:50:53.185Z,2.40
2019-01-10T18:53:22.832Z,2.40
2019-01-10T18:55:52.532Z,2.30
2019-01-10T18:58:22.237Z,2.30
2019-01-10T19:00:51.909Z,2.20
2019-01-10T19:03:21.677Z,2.10
2019-01-10T19:05:52.626Z,2.20
2019-01-10T19:08:22.314Z,2.10
2019-01-10T19:10:52.033Z,2.10
2019-01-10T19:13:23.053Z,2.10
2019-01-10T19:15:52.766Z,2.20
2019-01-10T19:18:22.567Z,2.10
2019-01-10T19:20:52.431Z,2.10
2019-01-10T19:23:22.098Z,2.00
2019-01-10T19:25:51.859Z,2.00
2019-01-10T19:28:21.644Z,2.00
2019-01-10T19:30:54.133Z,2.00
2019-01-10T19:33:23.800Z,1.90
2019-01-10T19:35:53.533Z,1.90
2019-01-10T19:38:24.388Z,1.90
2019-01-10T19:40:55.757Z,1.90
2019-01-10T19:43:25.503Z,1.90
2019-01-10T19:45:55.944Z,1.90
2019-01-10T19:48:26.985Z,1.90
2019-01-10T19:50:57.995Z,1.90
2019-01-10T19:53:28.069Z,1.90
2019-01-10T19:55:57.861Z,1.90
2019-01-10T19:58:28.840Z,1.90
2019-01-10T20:00:58.598Z,1.90
2019-01-10T20:03:29.598Z,1.90
2019-01-10T20:05:59.281Z,1.90
2019-01-10T20:08:32.543Z,1.80
2019-01-10T20:11:02.200Z,1.80
2019-01-10T20:13:31.883Z,1.80
2019-01-10T20:16:01.582Z,1.90
2019-01-10T20:18:31.292Z,1.90
2019-01-10T20:21:01.103Z,1.80
2019-01-10T20:23:34.972Z,1.80
2019-01-10T20:26:06.134Z,1.90
2019-01-10T20:28:38.786Z,1.90
2019-01-10T20:31:09.361Z,1.90
2019-01-10T20:33:42.352Z,1.90
2019-01-10T20:36:12.373Z,1.90
2019-01-10T20:38:46.059Z,1.80
2019-01-10T20:41:16.795Z,1.90
2019-01-10T20:43:46.507Z,1.90
2019-01-10T20:46:18.393Z,1.90
2019-01-10T20:48:48.717Z,1.90
2019-01-10T20:51:18.629Z,1.90
2019-01-10T20:53:48.469Z,1.90
2019-01-10T20:56:18.959Z,1.90
2019-01-10T20:58:48.783Z,1.90
2019-01-10T21:01:18.545Z,1.90
2019-01-10T21:03:50.689Z,1.90
2019-01-10T21:06:20.430Z,1.90
2019-01-10T21:08:50.243Z,2.00
2019-01-10T21:11:19.882Z,2.00
2019-01-10T21:13:49.524Z,2.00
2019-01-10T21:16:19.293Z,1.90
2019-01-10T21:18:50.167Z,1.90
2019-01-10T21:21:19.849Z,1.90
2019-01-10T21:23:49.585Z,1.90
2019-01-10T21:26:19.438Z,2.00
2019-01-10T21:28:49.105Z,2.00
2019-01-10T21:31:19.880Z,2.00
2019-01-10T21:33:52.091Z,2.00
2019-01-10T21:36:22.081Z,2.00
2019-01-10T21:38:51.884Z,2.00
2019-01-10T21:41:21.918Z,2.00
2019-01-10T21:43:51.728Z,2.00
2019-01-10T21:46:21.565Z,2.00
2019-01-10T21:48:51.293Z,2.00
2019-01-10T21:51:20.975Z,2.00
2019-01-10T21:53:54.023Z,2.00
2019-01-10T21:56:23.937Z,2.00
2019-01-10T21:58:53.668Z,2.00
2019-01-10T22:01:23.351Z,2.00
2019-01-10T22:03:53.083Z,2.00
2019-01-10T22:06:22.749Z,2.00
2019-01-10T22:08:52.448Z,2.00
2019-01-10T22:11:22.117Z,2.10
2019-01-10T22:13:53.079Z,2.00
2019-01-10T22:16:22.711Z,2.10
2019-01-10T22:18:52.358Z,2.10
2019-01-10T22:21:22.057Z,2.10
2019-01-10T22:23:51.699Z,2.00
2019-01-10T22:26:21.327Z,2.10
2019-01-10T22:28:53.374Z,2.10
2019-01-10T22:31:23.017Z,2.10
2019-01-10T22:33:52.711Z,2.10
2019-01-10T22:36:22.386Z,2.10
2019-01-10T22:38:53.413Z,2.10
2019-01-10T22:41:23.114Z,2.10
2019-01-10T22:43:52.759Z,2.10
2019-01-10T22:46:22.441Z,2.10
2019-01-10T22:48:53.424Z,2.10
2019-01-10T22:51:23.076Z,2.10
2019-01-10T22:53:52.748Z,2.10
2019-01-10T22:56:22.432Z,2.10
2019-01-10T22:58:53.383Z,2.10
2019-01-10T23:01:57.221Z,2.00
2019-01-10T23:04:31.248Z,2.00
2019-01-10T23:07:02.232Z,2.00
2019-01-10T23:09:33.162Z,1.90
2019-01-10T23:12:02.845Z,2.00
2019-01-10T23:14:32.547Z,2.00
2019-01-10T23:17:02.186Z,1.90
2019-01-10T23:19:31.825Z,1.90
2019-01-10T23:22:08.749Z,1.90
2019-01-10T23:24:38.419Z,1.80
2019-01-10T23:27:08.078Z,1.80
2019-01-10T23:29:38.020Z,1.80
2019-01-10T23:32:10.824Z,1.80
2019-01-10T23:34:46.914Z,1.80
2019-01-10T23:37:21.381Z,1.80
2019-01-10T23:39:51.148Z,1.80
2019-01-10T23:42:20.849Z,1.80
2019-01-10T23:44:50.505Z,1.80
2019-01-10T23:47:20.172Z,1.90
2019-01-10T23:49:49.837Z,1.90
2019-01-10T23:52:19.534Z,1.90
2019-01-10T23:54:49.247Z,1.90
2019-01-10T23:57:18.909Z,1.90
2019-01-10T23:59:48.537Z,1.90
